createdAt,value
2018-09-17T00:02:01.385Z,19.50
2018-09-17T00:04:30.308Z,19.50
2018-09-17T00:06:59.122Z,19.50
2018-09-17T00:09:27.962Z,19.40
2018-09-17T00:11:56.792Z,19.40
2018-09-17T00:14:26.041Z,19.40
2018-09-17T00:16:54.915Z,19.40
2018-09-17T00:19:23.757Z,19.30
2018-09-17T00:21:52.578Z,19.30
2018-09-17T00:24:21.394Z,19.30
2018-09-17T00:26:50.184Z,19.20
2018-09-17T00:29:19.391Z,19.20
2018-09-17T00:31:48.189Z,19.20
2018-09-17T00:34:17.010Z,19.10
2018-09-17T00:36:45.922Z,19.10
2018-09-17T00:39:14.748Z,19.10
2018-09-17T00:41:43.566Z,19.00
2018-09-17T00:44:12.382Z,19.00
2018-09-17T00:46:41.370Z,18.90
2018-09-17T00:49:10.158Z,18.90
2018-09-17T00:51:38.984Z,18.90
2018-09-17T00:54:07.775Z,18.80
2018-09-17T00:56:36.579Z,18.80
2018-09-17T00:59:05.767Z,18.80
2018-09-17T01:01:34.566Z,18.70
2018-09-17T01:04:03.401Z,18.70
2018-09-17T01:06:32.228Z,18.70
2018-09-17T01:09:01.032Z,18.60
2018-09-17T01:11:29.854Z,18.60
2018-09-17T01:13:58.746Z,18.60
2018-09-17T01:16:27.528Z,18.50
2018-09-17T01:18:56.401Z,18.50
2018-09-17T01:21:25.449Z,18.50
2018-09-17T01:23:54.238Z,18.40
2018-09-17T01:26:23.051Z,18.40
2018-09-17T01:28:51.890Z,18.40
2018-09-17T01:31:21.154Z,18.30
2018-09-17T01:33:50.034Z,18.30
2018-09-17T01:36:18.864Z,18.20
2018-09-17T01:38:47.667Z,18.20
2018-09-17T01:41:16.547Z,18.20
2018-09-17T01:43:45.476Z,18.20
2018-09-17T01:46:14.351Z,18.10
2018-09-17T01:48:43.109Z,18.10
2018-09-17T01:51:11.953Z,18.10
2018-09-17T01:53:40.813Z,18.10
2018-09-17T01:56:09.582Z,18.00
2018-09-17T01:58:38.439Z,18.00
2018-09-17T02:01:07.738Z,18.00
2018-09-17T02:03:36.567Z,18.00
2018-09-17T02:06:06.638Z,18.00
2018-09-17T02:08:35.633Z,17.90
2018-09-17T02:11:04.392Z,17.90
2018-09-17T02:13:33.282Z,17.90
2018-09-17T02:16:02.112Z,17.80
2018-09-17T02:18:30.912Z,17.80
2018-09-17T02:20:59.726Z,17.80
2018-09-17T02:23:28.541Z,17.80
2018-09-17T02:25:57.346Z,17.80
2018-09-17T02:28:26.859Z,17.80
2018-09-17T02:30:55.664Z,17.70
2018-09-17T02:33:25.659Z,17.70
2018-09-17T02:35:54.462Z,17.70
2018-09-17T02:38:23.262Z,17.70
2018-09-17T02:40:52.063Z,17.70
2018-09-17T02:43:20.883Z,17.60
2018-09-17T02:45:49.749Z,17.60
2018-09-17T02:48:18.603Z,17.60
2018-09-17T02:50:47.623Z,17.60
2018-09-17T02:53:16.439Z,17.60
2018-09-17T02:55:45.273Z,17.60
2018-09-17T02:58:14.089Z,17.50
2018-09-17T03:00:42.883Z,17.50
2018-09-17T03:03:11.690Z,17.50
2018-09-17T03:05:40.554Z,17.40
2018-09-17T03:10:49.272Z,17.50
2018-09-17T03:13:18.092Z,17.40
2018-09-17T03:15:55.780Z,17.40
2018-09-17T03:18:41.930Z,17.40
2018-09-17T03:21:10.776Z,17.40
2018-09-17T03:23:39.579Z,17.30
2018-09-17T03:26:08.395Z,17.30
2018-09-17T03:28:37.609Z,17.30
2018-09-17T03:31:06.430Z,17.30
2018-09-17T03:33:35.665Z,17.20
2018-09-17T03:36:04.491Z,17.20
2018-09-17T03:38:41.579Z,17.20
2018-09-17T03:41:11.193Z,17.10
2018-09-17T03:43:41.384Z,17.10
2018-09-17T03:46:10.205Z,17.10
2018-09-17T03:48:40.005Z,17.10
2018-09-17T03:51:09.406Z,17.10
2018-09-17T03:53:38.398Z,17.00
2018-09-17T03:56:07.222Z,17.00
2018-09-17T03:58:35.998Z,17.00
2018-09-17T04:01:05.070Z,17.00
2018-09-17T04:03:33.937Z,17.00
2018-09-17T04:06:02.822Z,17.00
2018-09-17T04:08:32.602Z,16.90
2018-09-17T04:11:01.587Z,16.90
2018-09-17T04:13:30.479Z,16.90
2018-09-17T04:15:59.269Z,16.90
2018-09-17T04:18:28.145Z,16.80
2018-09-17T04:20:56.946Z,16.90
2018-09-17T04:23:29.911Z,16.80
2018-09-17T04:25:58.811Z,16.80
2018-09-17T04:28:27.630Z,16.80
2018-09-17T04:30:56.928Z,16.80
2018-09-17T04:33:26.291Z,16.80
2018-09-17T04:35:55.475Z,16.80
2018-09-17T04:38:24.364Z,16.80
2018-09-17T04:40:53.319Z,16.80
2018-09-17T04:43:25.004Z,16.80
2018-09-17T04:45:53.835Z,16.70
2018-09-17T04:48:22.613Z,16.70
2018-09-17T04:50:51.409Z,16.80
2018-09-17T04:53:20.322Z,16.70
2018-09-17T04:55:49.138Z,16.70
2018-09-17T04:58:17.953Z,16.70
2018-09-17T05:00:46.816Z,16.70
2018-09-17T05:03:15.699Z,16.70
2018-09-17T05:05:44.547Z,16.80
2018-09-17T05:08:13.354Z,16.80
2018-09-17T05:10:42.189Z,16.80
2018-09-17T05:13:11.184Z,16.80
2018-09-17T05:15:39.999Z,16.80
2018-09-17T05:18:08.843Z,16.80
2018-09-17T05:20:37.666Z,16.80
2018-09-17T05:23:06.466Z,16.80
2018-09-17T05:25:35.272Z,16.80
2018-09-17T05:28:04.130Z,16.80
2018-09-17T05:30:32.934Z,16.80
2018-09-17T05:33:01.722Z,16.80
2018-09-17T05:35:30.521Z,16.80
2018-09-17T05:38:00.123Z,16.80
2018-09-17T05:40:28.950Z,16.80
2018-09-17T05:42:57.731Z,16.90
2018-09-17T05:45:26.665Z,16.90
2018-09-17T05:47:55.511Z,16.90
2018-09-17T05:50:24.333Z,16.90
2018-09-17T05:52:53.157Z,16.90
2018-09-17T05:55:22.024Z,17.00
2018-09-17T05:57:50.905Z,17.00
2018-09-17T06:00:20.146Z,17.10
2018-09-17T06:02:49.023Z,17.10
2018-09-17T06:05:17.894Z,17.20
2018-09-17T06:07:46.765Z,17.30
2018-09-17T06:10:16.642Z,17.30
2018-09-17T06:12:47.171Z,17.40
2018-09-17T06:15:16.346Z,17.50
2018-09-17T06:17:45.190Z,17.50
2018-09-17T06:20:14.558Z,17.60
2018-09-17T06:22:43.381Z,17.70
2018-09-17T06:25:12.218Z,17.80
2018-09-17T06:27:41.094Z,17.90
2018-09-17T06:30:09.899Z,18.00
2018-09-17T06:32:38.728Z,18.10
2018-09-17T06:35:08.815Z,18.10
2018-09-17T06:37:37.660Z,18.20
2018-09-17T06:40:10.362Z,18.30
2018-09-17T06:42:39.218Z,18.40
2018-09-17T06:45:08.863Z,18.50
2018-09-17T06:47:37.698Z,18.60
2018-09-17T06:50:07.938Z,18.70
2018-09-17T06:52:36.746Z,18.80
2018-09-17T06:55:05.605Z,18.90
2018-09-17T06:57:34.406Z,19.00
2018-09-17T07:00:03.287Z,19.10
2018-09-17T07:02:32.811Z,19.20
2018-09-17T07:05:01.731Z,19.30
2018-09-17T07:07:30.529Z,19.40
2018-09-17T07:09:59.404Z,19.50
2018-09-17T07:12:28.222Z,19.60
2018-09-17T07:14:57.057Z,19.70
2018-09-17T07:17:25.895Z,19.80
2018-09-17T07:19:54.705Z,19.80
2018-09-17T07:22:23.546Z,19.90
2018-09-17T07:24:53.078Z,20.00
2018-09-17T07:27:21.891Z,20.10
2018-09-17T07:29:50.760Z,20.20
2018-09-17T07:32:19.591Z,20.30
2018-09-17T07:34:49.269Z,20.40
2018-09-17T07:37:18.106Z,20.50
2018-09-17T07:39:46.947Z,20.60
2018-09-17T07:42:16.527Z,20.70
2018-09-17T07:44:45.336Z,20.80
2018-09-17T07:47:14.551Z,20.90
2018-09-17T07:49:43.382Z,21.00
2018-09-17T07:52:12.182Z,21.20
2018-09-17T07:54:40.979Z,21.30
2018-09-17T07:57:09.826Z,21.40
2018-09-17T07:59:38.892Z,21.50
2018-09-17T08:02:07.741Z,21.60
2018-09-17T08:04:36.543Z,21.80
2018-09-17T08:07:06.100Z,21.90
2018-09-17T08:09:35.272Z,22.00
2018-09-17T08:12:04.100Z,22.10
2018-09-17T08:14:32.934Z,22.30
2018-09-17T08:17:01.809Z,22.40
2018-09-17T08:19:30.574Z,22.50
2018-09-17T08:21:59.381Z,22.60
2018-09-17T08:24:28.254Z,22.70
2018-09-17T08:26:57.062Z,22.90
2018-09-17T08:29:25.876Z,22.90
2018-09-17T08:31:55.295Z,23.10
2018-09-17T08:34:24.110Z,23.20
2018-09-17T08:36:52.936Z,23.30
2018-09-17T08:39:21.782Z,23.50
2018-09-17T08:41:50.607Z,23.60
2018-09-17T08:44:19.853Z,23.70
2018-09-17T08:46:48.661Z,23.90
2018-09-17T08:49:17.520Z,24.00
2018-09-17T08:51:46.441Z,24.10
2018-09-17T08:54:15.727Z,24.30
2018-09-17T08:56:45.754Z,24.40
2018-09-17T09:00:23.625Z,24.50
2018-09-17T09:02:56.605Z,24.70
2018-09-17T09:05:30.903Z,24.90
2018-09-17T09:07:59.695Z,25.00
2018-09-17T09:10:34.362Z,25.10
2018-09-17T09:13:09.207Z,25.20
2018-09-17T09:15:39.101Z,25.30
2018-09-17T09:18:08.765Z,25.50
2018-09-17T09:20:40.602Z,25.60
2018-09-17T09:23:09.459Z,25.60
2018-09-17T09:25:38.285Z,25.70
2018-09-17T09:28:07.767Z,25.70
2018-09-17T09:30:36.607Z,25.80
2018-09-17T09:33:05.393Z,25.90
2018-09-17T09:35:34.191Z,25.90
2018-09-17T09:38:03.099Z,25.90
2018-09-17T09:40:31.897Z,26.00
2018-09-17T09:43:00.745Z,26.00
2018-09-17T09:45:29.920Z,26.00
2018-09-17T09:47:58.752Z,26.10
2018-09-17T09:50:28.085Z,26.10
2018-09-17T09:52:56.891Z,26.20
2018-09-17T09:55:25.704Z,26.20
2018-09-17T09:57:54.600Z,26.30
2018-09-17T10:00:28.855Z,26.30
2018-09-17T10:03:02.599Z,26.30
2018-09-17T10:05:31.517Z,26.40
2018-09-17T10:08:00.345Z,26.40
2018-09-17T10:10:34.769Z,26.40
2018-09-17T10:13:08.795Z,26.40
2018-09-17T10:15:43.003Z,26.50
2018-09-17T10:18:17.309Z,26.50
2018-09-17T10:20:46.145Z,26.60
2018-09-17T10:23:14.977Z,26.60
2018-09-17T10:25:43.826Z,26.60
2018-09-17T10:28:13.209Z,26.70
2018-09-17T10:30:42.083Z,26.70
2018-09-17T10:33:10.881Z,26.70
2018-09-17T10:35:39.729Z,26.80
2018-09-17T10:38:08.637Z,26.80
2018-09-17T10:40:37.494Z,26.90
2018-09-17T10:43:06.509Z,27.00
2018-09-17T10:45:35.725Z,27.00
2018-09-17T10:48:04.546Z,27.00
2018-09-17T10:50:33.861Z,27.10
2018-09-17T10:53:02.678Z,27.10
2018-09-17T10:55:31.498Z,27.20
2018-09-17T10:58:00.345Z,27.20
2018-09-17T11:00:29.151Z,27.20
2018-09-17T11:02:57.997Z,27.20
2018-09-17T11:05:26.846Z,27.20
2018-09-17T11:07:55.658Z,27.30
2018-09-17T11:10:24.493Z,27.30
2018-09-17T11:12:53.642Z,27.30
2018-09-17T11:15:26.678Z,27.40
2018-09-17T11:17:55.525Z,27.40
2018-09-17T11:20:24.331Z,27.40
2018-09-17T11:22:53.135Z,27.40
2018-09-17T11:25:21.968Z,27.40
2018-09-17T11:27:50.796Z,27.50
2018-09-17T11:30:19.687Z,27.50
2018-09-17T11:32:49.475Z,27.50
2018-09-17T11:35:18.288Z,27.50
2018-09-17T11:37:47.510Z,27.60
2018-09-17T11:40:16.343Z,27.60
2018-09-17T11:42:45.199Z,27.70
2018-09-17T11:45:14.014Z,27.70
2018-09-17T11:47:43.323Z,27.70
2018-09-17T11:50:12.196Z,27.80
2018-09-17T11:52:41.036Z,27.80
2018-09-17T11:55:10.330Z,27.80
2018-09-17T11:57:39.269Z,27.90
2018-09-17T12:00:08.616Z,27.90
2018-09-17T12:02:37.848Z,27.90
2018-09-17T12:05:08.855Z,28.00
2018-09-17T12:07:40.510Z,28.00
2018-09-17T12:10:09.822Z,28.00
2018-09-17T12:12:39.220Z,28.10
2018-09-17T12:15:09.611Z,28.20
2018-09-17T12:17:38.457Z,28.20
2018-09-17T12:20:08.843Z,28.30
2018-09-17T12:22:37.681Z,28.30
2018-09-17T12:25:07.618Z,28.40
2018-09-17T12:27:36.405Z,28.40
2018-09-17T12:30:05.258Z,28.50
2018-09-17T12:32:34.124Z,28.60
2018-09-17T12:35:02.953Z,28.60
2018-09-17T12:37:32.005Z,28.70
2018-09-17T12:40:00.838Z,28.70
2018-09-17T12:42:29.679Z,28.70
2018-09-17T12:44:58.543Z,28.80
2018-09-17T12:47:30.163Z,28.80
2018-09-17T12:49:59.551Z,28.90
2018-09-17T12:52:28.375Z,28.90
2018-09-17T12:54:57.214Z,29.00
2018-09-17T12:57:26.372Z,29.00
2018-09-17T12:59:55.219Z,29.00
2018-09-17T13:02:24.078Z,29.10
2018-09-17T13:04:52.946Z,29.10
2018-09-17T13:07:21.782Z,29.20
2018-09-17T13:09:50.627Z,29.20
2018-09-17T13:12:19.481Z,29.20
2018-09-17T13:14:48.373Z,29.20
2018-09-17T13:17:17.137Z,29.20
2018-09-17T13:19:46.195Z,29.20
2018-09-17T13:22:15.016Z,29.20
2018-09-17T13:24:43.860Z,29.20
2018-09-17T13:27:12.694Z,29.20
2018-09-17T13:29:41.550Z,29.30
2018-09-17T13:32:10.403Z,29.30
2018-09-17T13:34:39.603Z,29.30
2018-09-17T13:37:08.462Z,29.40
2018-09-17T13:39:38.071Z,29.40
2018-09-17T13:42:07.155Z,29.40
2018-09-17T13:44:36.109Z,29.50
2018-09-17T13:47:04.849Z,29.60
2018-09-17T13:49:33.677Z,29.60
2018-09-17T13:52:09.716Z,29.70
2018-09-17T13:54:38.526Z,29.80
2018-09-17T13:57:07.357Z,29.80
2018-09-17T13:59:36.214Z,29.80
2018-09-17T14:02:05.708Z,29.80
2018-09-17T14:04:34.672Z,29.80
2018-09-17T14:07:03.407Z,31.40
2018-09-17T14:09:32.441Z,29.80
2018-09-17T14:12:01.242Z,29.80
2018-09-17T14:14:30.149Z,29.80
2018-09-17T14:16:58.955Z,29.80
2018-09-17T14:19:27.876Z,29.90
2018-09-17T14:21:56.684Z,29.90
2018-09-17T14:24:26.004Z,29.90
2018-09-17T14:26:54.945Z,30.00
2018-09-17T14:29:23.746Z,30.00
2018-09-17T14:31:57.963Z,30.00
2018-09-17T14:34:26.769Z,30.00
2018-09-17T14:36:55.565Z,30.00
2018-09-17T14:39:24.849Z,30.00
2018-09-17T14:41:53.684Z,30.10
2018-09-17T14:44:22.504Z,30.10
2018-09-17T14:46:51.775Z,30.10
2018-09-17T14:49:20.646Z,30.10
2018-09-17T14:51:49.498Z,30.10
2018-09-17T14:54:18.609Z,30.10
2018-09-17T14:56:47.429Z,30.10
2018-09-17T14:59:16.318Z,30.10
2018-09-17T15:01:45.244Z,30.10
2018-09-17T15:04:14.033Z,30.10
2018-09-17T15:06:42.807Z,30.10
2018-09-17T15:09:12.097Z,30.10
2018-09-17T15:11:40.898Z,30.10
2018-09-17T15:14:10.384Z,30.00
2018-09-17T15:16:39.292Z,30.00
2018-09-17T15:19:08.145Z,30.00
2018-09-17T15:21:37.004Z,30.00
2018-09-17T15:24:05.989Z,30.00
2018-09-17T15:26:34.777Z,29.90
2018-09-17T15:29:03.582Z,29.90
2018-09-17T15:31:33.050Z,29.90
2018-09-17T15:34:01.941Z,29.80
2018-09-17T15:36:30.710Z,29.80
2018-09-17T15:38:59.566Z,29.70
2018-09-17T15:41:28.532Z,29.70
2018-09-17T15:43:57.208Z,29.60
2018-09-17T15:46:26.031Z,29.60
2018-09-17T15:48:54.846Z,29.50
2018-09-17T15:51:23.742Z,29.50
2018-09-17T15:53:52.970Z,29.40
2018-09-17T15:56:22.389Z,29.40
2018-09-17T15:58:51.210Z,29.30
2018-09-17T16:01:20.051Z,29.30
2018-09-17T16:03:48.874Z,29.30
2018-09-17T16:06:17.718Z,29.20
2018-09-17T16:08:46.640Z,29.20
2018-09-17T16:11:15.413Z,29.10
2018-09-17T16:13:44.224Z,29.00
2018-09-17T16:16:13.372Z,29.00
2018-09-17T16:18:42.237Z,28.90
2018-09-17T16:21:11.118Z,28.80
2018-09-17T16:23:39.991Z,28.80
2018-09-17T16:26:08.881Z,28.70
2018-09-17T16:28:37.720Z,28.70
2018-09-17T16:31:06.618Z,28.60
2018-09-17T16:33:35.512Z,28.50
2018-09-17T16:36:04.296Z,28.50
2018-09-17T16:38:33.485Z,28.40
2018-09-17T16:41:02.286Z,28.30
2018-09-17T16:43:31.118Z,28.30
2018-09-17T16:45:59.933Z,28.20
2018-09-17T16:48:28.922Z,28.10
2018-09-17T16:50:57.753Z,28.00
2018-09-17T16:53:26.656Z,27.90
2018-09-17T16:55:55.427Z,27.80
2018-09-17T16:58:24.758Z,27.70
2018-09-17T17:00:54.034Z,27.70
2018-09-17T17:03:22.856Z,27.60
2018-09-17T17:05:51.661Z,27.50
2018-09-17T17:08:20.458Z,27.40
2018-09-17T17:10:49.347Z,27.20
2018-09-17T17:13:18.136Z,27.20
2018-09-17T17:15:48.561Z,27.10
2018-09-17T17:18:19.238Z,27.00
2018-09-17T17:20:48.101Z,26.90
2018-09-17T17:23:17.433Z,26.80
2018-09-17T17:25:46.278Z,26.70
2018-09-17T17:28:15.185Z,26.60
2018-09-17T17:30:44.041Z,26.40
2018-09-17T17:33:12.920Z,26.40
2018-09-17T17:35:41.898Z,26.30
2018-09-17T17:38:10.758Z,26.20
2018-09-17T17:40:39.700Z,26.00
2018-09-17T17:43:08.394Z,25.90
2018-09-17T17:45:37.643Z,25.80
2018-09-17T17:48:06.676Z,25.70
2018-09-17T17:50:35.465Z,25.60
2018-09-17T17:53:04.271Z,25.50
2018-09-17T17:55:33.111Z,25.40
2018-09-17T17:58:01.962Z,25.30
2018-09-17T18:00:31.128Z,25.30
2018-09-17T18:02:59.941Z,25.20
2018-09-17T18:05:28.789Z,25.10
2018-09-17T18:07:58.127Z,25.00
2018-09-17T18:10:26.967Z,24.90
2018-09-17T18:12:55.826Z,24.90
2018-09-17T18:15:25.060Z,24.80
2018-09-17T18:17:53.876Z,24.70
2018-09-17T18:20:22.691Z,24.70
2018-09-17T18:22:51.565Z,24.60
2018-09-17T18:25:20.405Z,24.50
2018-09-17T18:27:49.230Z,24.40
2018-09-17T18:30:18.513Z,24.40
2018-09-17T18:32:47.354Z,24.30
2018-09-17T18:35:19.183Z,24.20
2018-09-17T18:37:47.983Z,24.20
2018-09-17T18:40:16.789Z,24.10
2018-09-17T18:42:45.722Z,24.00
2018-09-17T18:45:14.526Z,24.00
2018-09-17T18:47:43.306Z,23.90
2018-09-17T18:50:12.623Z,23.90
2018-09-17T18:52:41.442Z,23.80
2018-09-17T18:55:10.259Z,23.80
2018-09-17T18:57:39.076Z,23.70
2018-09-17T19:00:09.398Z,23.60
2018-09-17T19:02:38.798Z,23.60
2018-09-17T19:05:08.935Z,23.60
2018-09-17T19:07:37.767Z,23.50
2018-09-17T19:10:07.741Z,23.50
2018-09-17T19:12:39.888Z,23.40
2018-09-17T19:15:14.147Z,23.40
2018-09-17T19:17:43.231Z,23.30
2018-09-17T19:20:12.665Z,23.30
2018-09-17T19:22:46.923Z,23.20
2018-09-17T19:25:16.329Z,23.20
2018-09-17T19:27:51.172Z,23.20
2018-09-17T19:30:20.039Z,23.10
2018-09-17T19:32:48.778Z,23.10
2018-09-17T19:35:17.606Z,23.10
2018-09-17T19:38:49.336Z,23.00
2018-09-17T19:41:18.202Z,23.00
2018-09-17T19:43:47.055Z,22.90
2018-09-17T19:46:17.583Z,22.80
2018-09-17T19:48:46.885Z,22.80
2018-09-17T19:51:21.050Z,22.70
2018-09-17T19:53:49.927Z,22.70
2018-09-17T19:56:18.760Z,22.70
2018-09-17T19:58:53.059Z,22.70
2018-09-17T20:01:21.888Z,22.60
2018-09-17T20:03:51.208Z,22.60
2018-09-17T20:06:24.328Z,22.60
2018-09-17T20:08:53.103Z,22.50
2018-09-17T20:11:21.906Z,22.50
2018-09-17T20:13:50.744Z,22.40
2018-09-17T20:16:19.712Z,22.40
2018-09-17T20:18:48.647Z,22.40
2018-09-17T20:21:17.493Z,22.40
2018-09-17T20:23:46.290Z,22.30
2018-09-17T20:26:15.116Z,22.30
2018-09-17T20:28:44.407Z,22.20
2018-09-17T20:31:13.223Z,22.20
2018-09-17T20:33:42.035Z,22.20
2018-09-17T20:36:10.883Z,22.10
2018-09-17T20:38:39.730Z,22.10
2018-09-17T20:41:08.517Z,22.10
2018-09-17T20:43:37.370Z,22.00
2018-09-17T20:46:06.215Z,22.00
2018-09-17T20:48:35.079Z,22.00
2018-09-17T20:51:04.360Z,21.90
2018-09-17T20:53:33.152Z,21.90
2018-09-17T20:56:02.031Z,21.90
2018-09-17T20:58:30.870Z,21.80
2018-09-17T21:00:59.709Z,21.80
2018-09-17T21:03:28.485Z,21.80
2018-09-17T21:05:57.757Z,21.70
2018-09-17T21:08:26.573Z,21.70
2018-09-17T21:10:55.388Z,21.70
2018-09-17T21:13:24.559Z,21.70
2018-09-17T21:15:53.367Z,21.60
2018-09-17T21:18:22.186Z,21.60
2018-09-17T21:20:51.005Z,21.60
2018-09-17T21:23:19.826Z,21.60
2018-09-17T21:25:48.654Z,21.50
2018-09-17T21:28:17.496Z,21.50
2018-09-17T21:30:46.404Z,21.50
2018-09-17T21:33:15.239Z,21.50
2018-09-17T21:35:44.254Z,21.40
2018-09-17T21:38:19.895Z,21.40
2018-09-17T21:40:48.792Z,21.40
2018-09-17T21:43:17.581Z,21.30
2018-09-17T21:45:46.362Z,21.30
2018-09-17T21:48:15.214Z,21.30
2018-09-17T21:50:44.036Z,21.30
2018-09-17T21:53:12.836Z,21.20
2018-09-17T21:55:42.246Z,21.20
2018-09-17T21:58:14.096Z,21.20
2018-09-17T22:00:48.303Z,21.10
2018-09-17T22:03:17.130Z,21.10
2018-09-17T22:05:45.965Z,21.10
2018-09-17T22:08:15.138Z,21.10
2018-09-17T22:10:43.959Z,21.10
2018-09-17T22:13:12.779Z,21.00
2018-09-17T22:15:41.718Z,21.00
2018-09-17T22:18:10.518Z,21.00
2018-09-17T22:20:39.335Z,21.00
2018-09-17T22:23:08.159Z,21.00
2018-09-17T22:25:36.983Z,20.90
2018-09-17T22:28:05.789Z,20.90
2018-09-17T22:30:34.617Z,20.90
2018-09-17T22:33:03.429Z,20.90
2018-09-17T22:35:32.262Z,20.90
2018-09-17T22:38:01.278Z,20.80
2018-09-17T22:40:30.085Z,20.80
2018-09-17T22:42:58.890Z,20.80
2018-09-17T22:45:27.724Z,20.80
2018-09-17T22:47:56.519Z,20.70
2018-09-17T22:50:25.326Z,20.70
2018-09-17T22:52:54.135Z,20.70
2018-09-17T22:55:22.963Z,20.70
2018-09-17T22:57:51.792Z,20.70
2018-09-17T23:00:20.885Z,20.70
2018-09-17T23:02:49.730Z,20.60
2018-09-17T23:05:18.545Z,20.60
2018-09-17T23:07:47.588Z,20.60
2018-09-17T23:10:16.987Z,20.60
2018-09-17T23:12:45.942Z,20.60
2018-09-17T23:15:14.751Z,20.50
2018-09-17T23:17:43.561Z,20.50
2018-09-17T23:20:12.396Z,20.50
2018-09-17T23:22:41.526Z,20.50
2018-09-17T23:25:10.384Z,20.50
2018-09-17T23:27:39.232Z,20.40
2018-09-17T23:30:09.002Z,20.40
2018-09-17T23:32:37.822Z,20.40
2018-09-17T23:35:08.091Z,20.40
2018-09-17T23:37:36.903Z,20.30
2018-09-17T23:40:05.776Z,20.30
2018-09-17T23:42:34.576Z,20.30
2018-09-17T23:45:03.826Z,20.30
2018-09-17T23:47:32.653Z,20.20
2018-09-17T23:50:01.474Z,20.20
2018-09-17T23:52:30.288Z,20.20
2018-09-17T23:54:59.085Z,20.20
2018-09-17T23:57:34.387Z,20.20
